ADDS METAR Data INFO
IDs: Format: Raw Decoded Include TAF

Data at: 2047 UTC 19 Jul 2018

KPMD 191953Z 23007KT 10SM CLR 37/14 A3000 RMK AO2 SLP119 T03670144 $
KPMD 191853Z 10SM CLR 37/15 A3002 RMK AO2 SLP126 T03670150 $
KPMD 191753Z 10SM CLR 36/15 A3003 RMK AO2 SLP131 T03560150 10356 20256 50002 $
KPMD 191653Z 32004KT 10SM CLR 33/14 A3004 RMK AO2 SLP133 T03330144 $
KPMD 191553Z 00000KT 10SM CLR 32/15 A3004 RMK AO2 SLP135 T03220150 $
KPMD 191453Z 00000KT 10SM CLR 30/16 A3003 RMK AO2 SLP132 T03000161 51009 $
KPMD 191353Z 18007KT 10SM CLR 28/16 A3002 RMK AO2 SLP129 T02780161 $
KPMD 191253Z 16006KT 10SM CLR 26/16 A3001 RMK AO2 SLP126 T02560156 $
KPMD 191153Z AUTO 16009KT 10SM CLR 26/16 A3000 RMK AO2 SLP121 T02610161 10300 20256 55003 $
KPMD 191053Z AUTO 14004KT 10SM CLR 26/16 A2999 RMK AO2 SLP120 T02610156 $
KPMD 190953Z AUTO 00000KT 10SM CLR 28/16 A3000 RMK AO2 SLP121 T02830156 $
KPMD 190853Z AUTO 21011KT 10SM CLR 28/16 A3001 RMK AO2 SLP123 T02830161 56002 $
KPMD 190753Z AUTO 23009KT 10SM CLR 29/16 A3001 RMK AO2 SLP122 T02890156 403940256 $
KPMD 190653Z AUTO 23014KT 10SM CLR 29/16 A3001 RMK AO2 SLP124 T02940156 $
KPMD 190553Z AUTO 23014KT 10SM CLR 30/16 A3002 RMK AO2 SLP125 T03000156 10367 20300 51013 $
KPMD 190453Z 22012KT 10SM CLR 31/16 A3000 RMK AO2 SLP122 T03060156 $
KPMD 190353Z 22014KT 10SM CLR 31/16 A2999 RMK AO2 SLP119 T03110156 $
KPMD 190253Z 22017G22KT 10SM CLR 32/16 A2997 RMK AO2 SLP114 T03170156 55001 $
KPMD 190153Z 23016KT 10SM CLR 34/16 A2997 RMK AO2 SLP112 T03390161 $
KPMD 190053Z 24018KT 10SM CLR 35/16 A2997 RMK AO2 SLP112 T03500156 $
KPMD 182353Z 24017KT 10SM CLR 37/16 A2997 RMK AO2 LTG DSNT E SLP113 T03670156 10394 20350 56017 $
KPMD 182310Z 23018KT 10SM CLR 36/16 A2998
KPMD 182253Z 23013KT 10SM CLR 37/15 A2999 RMK AO2 SLP118 T03720150 $
KPMD 182153Z 25015G26KT 10SM CLR 38/14 A3001 RMK AO2 PK WND 25026/2152 SLP124 T03780144 $
KPMD 182053Z 22014KT 10SM CLR 37/13 A3003 RMK AO2 SLP131 T03670133 56010 $
KPMD 181953Z VRB06KT 10SM CLR 38/09 A3004 RMK AO2 SLP133 T03830094 $
KPMD 181853Z 00000KT 10SM CLR 36/10 A3005 RMK AO2 SLP136 T03610100 $
KPMD 181753Z VRB03KT 10SM CLR 36/09 A3006 RMK AO2 SLP141 T03560094 10356 20256 53003 $
KPMD 181653Z 00000KT 10SM CLR 33/09 A3006 RMK AO2 SLP141 T03330089 $
KPMD 181553Z 33006KT 10SM CLR 31/11 A3005 RMK AO2 SLP139 T03110106
KPMD 181453Z 22008KT 10SM CLR 29/12 A3005 RMK AO2 SLP141 T02890117 52008
KPMD 181353Z 21007KT 10SM CLR 27/10 A3004 RMK AO2 SLP138 T02670100
KPMD 181253Z 19006KT 10SM CLR 26/10 A3004 RMK AO2 SLP133 T02610100
KPMD 181153Z AUTO 20009KT 10SM CLR 26/11 A3003 RMK AO2 SLP129 T02610106 10306 20256 53005
KPMD 181053Z AUTO 22008KT 10SM CLR 26/10 A3001 RMK AO2 SLP124 T02610100
KPMD 180953Z AUTO 19006KT 10SM CLR 26/12 A3001 RMK AO2 SLP125 T02610117
KPMD 180853Z AUTO 20005KT 10SM CLR 27/11 A3001 RMK AO2 SLP122 T02720106 58003